sensor_id;sensor_type;location;lat;lon;timestamp;P1;durP1;ratioP1;P2;durP2;ratioP2
75894;SDS011;64573;50.328;15.014;2023-03-01T00:00:11;38.58;;;15.38;;
75894;SDS011;64573;50.328;15.014;2023-03-01T00:02:37;45.03;;;15.38;;
75894;SDS011;64573;50.328;15.014;2023-03-01T00:05:02;38.08;;;16.23;;
75894;SDS011;64573;50.328;15.014;2023-03-01T00:07:28;37.58;;;15.15;;
75894;SDS011;64573;50.328;15.014;2023-03-01T00:09:53;34.50;;;13.55;;
75894;SDS011;64573;50.328;15.014;2023-03-01T00:12:19;33.88;;;14.57;;
75894;SDS011;64573;50.328;15.014;2023-03-01T00:14:45;34.67;;;15.90;;
75894;SDS011;64573;50.328;15.014;2023-03-01T00:17:10;33.08;;;13.48;;
75894;SDS011;64573;50.328;15.014;2023-03-01T00:19:35;29.67;;;12.32;;
75894;SDS011;64573;50.328;15.014;2023-03-01T00:22:01;37.17;;;14.15;;
75894;SDS011;64573;50.328;15.014;2023-03-01T00:24:26;31.60;;;13.57;;
75894;SDS011;64573;50.328;15.014;2023-03-01T00:26:52;36.25;;;15.57;;
75894;SDS011;64573;50.328;15.014;2023-03-01T00:29:20;37.03;;;14.27;;
75894;SDS011;64573;50.328;15.014;2023-03-01T00:31:46;30.17;;;13.10;;
75894;SDS011;64573;50.328;15.014;2023-03-01T00:34:11;42.90;;;15.43;;
75894;SDS011;64573;50.328;15.014;2023-03-01T00:36:37;47.88;;;15.88;;
75894;SDS011;64573;50.328;15.014;2023-03-01T00:39:03;56.20;;;17.13;;
75894;SDS011;64573;50.328;15.014;2023-03-01T00:41:30;39.38;;;15.68;;
75894;SDS011;64573;50.328;15.014;2023-03-01T00:43:56;44.22;;;16.75;;
75894;SDS011;64573;50.328;15.014;2023-03-01T00:46:22;41.50;;;16.90;;
75894;SDS011;64573;50.328;15.014;2023-03-01T00:48:50;40.70;;;16.02;;
75894;SDS011;64573;50.328;15.014;2023-03-01T00:51:18;44.58;;;16.90;;
75894;SDS011;64573;50.328;15.014;2023-03-01T00:53:45;49.05;;;18.42;;
75894;SDS011;64573;50.328;15.014;2023-03-01T00:56:12;50.22;;;18.35;;
75894;SDS011;64573;50.328;15.014;2023-03-01T00:58:39;39.67;;;16.33;;
75894;SDS011;64573;50.328;15.014;2023-03-01T01:01:12;40.83;;;16.83;;
75894;SDS011;64573;50.328;15.014;2023-03-01T01:04:04;36.35;;;14.52;;
75894;SDS011;64573;50.328;15.014;2023-03-01T01:06:33;35.05;;;14.77;;
75894;SDS011;64573;50.328;15.014;2023-03-01T01:09:00;33.72;;;13.25;;
75894;SDS011;64573;50.328;15.014;2023-03-01T01:11:27;39.55;;;15.82;;
75894;SDS011;64573;50.328;15.014;2023-03-01T01:13:54;40.13;;;17.75;;
75894;SDS011;64573;50.328;15.014;2023-03-01T01:16:21;35.83;;;13.90;;
75894;SDS011;64573;50.328;15.014;2023-03-01T01:18:48;49.28;;;19.98;;
75894;SDS011;64573;50.328;15.014;2023-03-01T01:21:15;40.75;;;16.33;;
75894;SDS011;64573;50.328;15.014;2023-03-01T01:23:43;31.88;;;13.45;;
75894;SDS011;64573;50.328;15.014;2023-03-01T01:26:11;44.85;;;19.05;;
75894;SDS011;64573;50.328;15.014;2023-03-01T01:28:38;31.50;;;13.63;;
75894;SDS011;64573;50.328;15.014;2023-03-01T01:31:04;37.58;;;16.08;;
75894;SDS011;64573;50.328;15.014;2023-03-01T01:33:30;36.13;;;15.38;;
75894;SDS011;64573;50.328;15.014;2023-03-01T01:35:56;43.83;;;17.35;;
75894;SDS011;64573;50.328;15.014;2023-03-01T01:38:21;44.88;;;16.17;;
75894;SDS011;64573;50.328;15.014;2023-03-01T01:40:47;41.28;;;16.55;;
75894;SDS011;64573;50.328;15.014;2023-03-01T01:43:24;41.83;;;17.45;;
75894;SDS011;64573;50.328;15.014;2023-03-01T01:45:52;33.50;;;14.55;;
75894;SDS011;64573;50.328;15.014;2023-03-01T01:48:22;33.42;;;14.40;;
75894;SDS011;64573;50.328;15.014;2023-03-01T01:50:55;37.53;;;14.73;;
75894;SDS011;64573;50.328;15.014;2023-03-01T01:53:23;34.42;;;14.73;;
75894;SDS011;64573;50.328;15.014;2023-03-01T01:55:51;36.53;;;14.80;;
75894;SDS011;64573;50.328;15.014;2023-03-01T01:58:22;38.30;;;16.42;;
75894;SDS011;64573;50.328;15.014;2023-03-01T02:00:51;35.78;;;14.90;;
75894;SDS011;64573;50.328;15.014;2023-03-01T02:03:17;38.15;;;15.20;;
75894;SDS011;64573;50.328;15.014;2023-03-01T02:05:50;33.60;;;13.20;;
75894;SDS011;64573;50.328;15.014;2023-03-01T02:08:17;33.45;;;14.82;;
75894;SDS011;64573;50.328;15.014;2023-03-01T02:10:44;33.22;;;13.23;;
75894;SDS011;64573;50.328;15.014;2023-03-01T02:13:11;38.03;;;15.30;;
75894;SDS011;64573;50.328;15.014;2023-03-01T02:15:37;45.58;;;17.10;;
75894;SDS011;64573;50.328;15.014;2023-03-01T02:18:04;40.20;;;16.33;;
75894;SDS011;64573;50.328;15.014;2023-03-01T02:22:57;46.55;;;17.45;;
75894;SDS011;64573;50.328;15.014;2023-03-01T02:25:40;40.42;;;17.25;;
75894;SDS011;64573;50.328;15.014;2023-03-01T02:30:44;24.15;;;10.00;;
75894;SDS011;64573;50.328;15.014;2023-03-01T02:33:31;39.40;;;16.00;;
75894;SDS011;64573;50.328;15.014;2023-03-01T02:36:01;36.08;;;14.40;;
75894;SDS011;64573;50.328;15.014;2023-03-01T02:38:36;41.13;;;14.95;;
75894;SDS011;64573;50.328;15.014;2023-03-01T02:41:02;32.67;;;13.00;;
75894;SDS011;64573;50.328;15.014;2023-03-01T02:43:31;37.33;;;14.65;;
75894;SDS011;64573;50.328;15.014;2023-03-01T02:46:02;40.42;;;14.65;;
75894;SDS011;64573;50.328;15.014;2023-03-01T02:48:52;35.72;;;14.48;;
75894;SDS011;64573;50.328;15.014;2023-03-01T02:54:27;40.90;;;15.23;;
75894;SDS011;64573;50.328;15.014;2023-03-01T02:56:59;39.50;;;14.68;;
75894;SDS011;64573;50.328;15.014;2023-03-01T02:59:24;38.15;;;15.32;;
75894;SDS011;64573;50.328;15.014;2023-03-01T03:01:54;34.22;;;15.10;;
75894;SDS011;64573;50.328;15.014;2023-03-01T03:04:20;33.53;;;14.75;;
75894;SDS011;64573;50.328;15.014;2023-03-01T03:06:46;36.17;;;15.50;;
75894;SDS011;64573;50.328;15.014;2023-03-01T03:09:13;40.83;;;13.43;;
75894;SDS011;64573;50.328;15.014;2023-03-01T03:11:40;34.58;;;14.48;;
75894;SDS011;64573;50.328;15.014;2023-03-01T03:14:08;43.45;;;16.10;;
75894;SDS011;64573;50.328;15.014;2023-03-01T03:16:44;38.38;;;15.32;;
75894;SDS011;64573;50.328;15.014;2023-03-01T03:19:14;37.65;;;14.77;;
75894;SDS011;64573;50.328;15.014;2023-03-01T03:21:40;37.70;;;16.15;;
75894;SDS011;64573;50.328;15.014;2023-03-01T03:24:05;40.83;;;17.17;;
75894;SDS011;64573;50.328;15.014;2023-03-01T03:26:31;53.30;;;23.30;;
75894;SDS011;64573;50.328;15.014;2023-03-01T03:28:57;60.83;;;25.05;;
75894;SDS011;64573;50.328;15.014;2023-03-01T03:31:22;39.47;;;16.00;;
75894;SDS011;64573;50.328;15.014;2023-03-01T03:33:48;56.85;;;23.02;;
75894;SDS011;64573;50.328;15.014;2023-03-01T03:36:17;50.25;;;21.13;;
75894;SDS011;64573;50.328;15.014;2023-03-01T03:38:44;46.75;;;17.80;;
75894;SDS011;64573;50.328;15.014;2023-03-01T03:41:11;44.95;;;19.05;;
75894;SDS011;64573;50.328;15.014;2023-03-01T03:43:38;44.17;;;17.08;;
75894;SDS011;64573;50.328;15.014;2023-03-01T03:46:04;41.80;;;15.90;;
75894;SDS011;64573;50.328;15.014;2023-03-01T03:48:32;43.70;;;17.70;;
75894;SDS011;64573;50.328;15.014;2023-03-01T03:50:59;43.42;;;17.58;;
75894;SDS011;64573;50.328;15.014;2023-03-01T03:53:25;43.42;;;16.88;;
75894;SDS011;64573;50.328;15.014;2023-03-01T03:55:51;46.30;;;17.02;;
75894;SDS011;64573;50.328;15.014;2023-03-01T03:58:18;46.67;;;18.20;;
75894;SDS011;64573;50.328;15.014;2023-03-01T04:00:45;44.13;;;18.08;;
75894;SDS011;64573;50.328;15.014;2023-03-01T04:03:12;41.55;;;18.35;;
75894;SDS011;64573;50.328;15.014;2023-03-01T04:05:39;49.60;;;18.30;;
75894;SDS011;64573;50.328;15.014;2023-03-01T04:08:06;41.95;;;16.38;;
75894;SDS011;64573;50.328;15.014;2023-03-01T04:10:36;46.33;;;16.98;;
75894;SDS011;64573;50.328;15.014;2023-03-01T04:13:02;42.35;;;17.30;;
75894;SDS011;64573;50.328;15.014;2023-03-01T04:15:28;50.13;;;19.70;;
75894;SDS011;64573;50.328;15.014;2023-03-01T04:17:54;52.78;;;20.40;;
75894;SDS011;64573;50.328;15.014;2023-03-01T04:20:21;65.15;;;24.02;;
75894;SDS011;64573;50.328;15.014;2023-03-01T04:22:52;67.45;;;22.80;;
75894;SDS011;64573;50.328;15.014;2023-03-01T04:25:22;66.00;;;24.15;;
75894;SDS011;64573;50.328;15.014;2023-03-01T04:27:48;68.97;;;20.02;;
75894;SDS011;64573;50.328;15.014;2023-03-01T04:30:14;65.57;;;22.42;;
75894;SDS011;64573;50.328;15.014;2023-03-01T04:32:39;74.43;;;23.05;;
75894;SDS011;64573;50.328;15.014;2023-03-01T04:35:05;61.58;;;23.58;;
75894;SDS011;64573;50.328;15.014;2023-03-01T04:37:30;71.15;;;22.48;;
75894;SDS011;64573;50.328;15.014;2023-03-01T04:39:56;61.55;;;23.13;;
75894;SDS011;64573;50.328;15.014;2023-03-01T04:42:21;58.72;;;21.98;;
75894;SDS011;64573;50.328;15.014;2023-03-01T04:44:46;50.08;;;19.92;;
75894;SDS011;64573;50.328;15.014;2023-03-01T04:47:12;59.90;;;21.80;;
75894;SDS011;64573;50.328;15.014;2023-03-01T04:49:37;54.75;;;19.13;;
75894;SDS011;64573;50.328;15.014;2023-03-01T04:52:03;58.10;;;20.98;;
75894;SDS011;64573;50.328;15.014;2023-03-01T04:54:29;58.30;;;21.95;;
75894;SDS011;64573;50.328;15.014;2023-03-01T04:56:55;62.63;;;22.77;;
75894;SDS011;64573;50.328;15.014;2023-03-01T04:59:21;64.85;;;23.83;;
75894;SDS011;64573;50.328;15.014;2023-03-01T05:01:47;59.35;;;22.30;;
75894;SDS011;64573;50.328;15.014;2023-03-01T05:04:13;64.63;;;22.90;;
75894;SDS011;64573;50.328;15.014;2023-03-01T05:06:39;59.10;;;22.63;;
75894;SDS011;64573;50.328;15.014;2023-03-01T05:09:04;60.63;;;20.30;;
75894;SDS011;64573;50.328;15.014;2023-03-01T05:11:30;52.95;;;19.30;;
75894;SDS011;64573;50.328;15.014;2023-03-01T05:13:58;44.78;;;18.15;;
75894;SDS011;64573;50.328;15.014;2023-03-01T05:16:24;52.67;;;19.27;;
75894;SDS011;64573;50.328;15.014;2023-03-01T05:18:49;65.20;;;22.90;;
75894;SDS011;64573;50.328;15.014;2023-03-01T05:21:15;60.15;;;21.70;;
75894;SDS011;64573;50.328;15.014;2023-03-01T05:23:42;49.75;;;18.60;;
75894;SDS011;64573;50.328;15.014;2023-03-01T05:26:07;61.80;;;21.13;;
75894;SDS011;64573;50.328;15.014;2023-03-01T05:28:33;46.88;;;18.08;;
75894;SDS011;64573;50.328;15.014;2023-03-01T05:30:59;56.20;;;20.30;;
75894;SDS011;64573;50.328;15.014;2023-03-01T05:33:25;52.70;;;19.90;;
75894;SDS011;64573;50.328;15.014;2023-03-01T05:35:51;53.65;;;17.83;;
75894;SDS011;64573;50.328;15.014;2023-03-01T05:38:18;40.85;;;16.70;;
75894;SDS011;64573;50.328;15.014;2023-03-01T05:40:45;45.55;;;17.25;;
75894;SDS011;64573;50.328;15.014;2023-03-01T05:43:13;48.15;;;18.52;;
75894;SDS011;64573;50.328;15.014;2023-03-01T05:45:40;47.22;;;17.35;;
75894;SDS011;64573;50.328;15.014;2023-03-01T05:48:06;47.53;;;20.13;;
75894;SDS011;64573;50.328;15.014;2023-03-01T05:50:34;50.20;;;20.05;;
75894;SDS011;64573;50.328;15.014;2023-03-01T05:53:02;53.10;;;18.67;;
75894;SDS011;64573;50.328;15.014;2023-03-01T05:55:31;50.75;;;19.08;;
75894;SDS011;64573;50.328;15.014;2023-03-01T05:58:03;47.58;;;18.27;;
75894;SDS011;64573;50.328;15.014;2023-03-01T06:00:31;38.10;;;15.40;;
75894;SDS011;64573;50.328;15.014;2023-03-01T06:02:57;37.92;;;15.00;;
75894;SDS011;64573;50.328;15.014;2023-03-01T06:05:23;39.55;;;15.02;;
75894;SDS011;64573;50.328;15.014;2023-03-01T06:07:49;44.78;;;15.43;;
75894;SDS011;64573;50.328;15.014;2023-03-01T06:10:15;47.40;;;17.02;;
75894;SDS011;64573;50.328;15.014;2023-03-01T06:12:42;41.63;;;15.32;;
75894;SDS011;64573;50.328;15.014;2023-03-01T06:15:08;33.22;;;13.20;;
75894;SDS011;64573;50.328;15.014;2023-03-01T06:17:36;45.08;;;16.20;;
75894;SDS011;64573;50.328;15.014;2023-03-01T06:20:04;39.55;;;15.25;;
75894;SDS011;64573;50.328;15.014;2023-03-01T06:22:30;40.38;;;15.43;;
75894;SDS011;64573;50.328;15.014;2023-03-01T06:24:56;46.53;;;15.95;;
75894;SDS011;64573;50.328;15.014;2023-03-01T06:27:21;43.45;;;16.75;;
75894;SDS011;64573;50.328;15.014;2023-03-01T06:29:47;41.58;;;18.33;;
75894;SDS011;64573;50.328;15.014;2023-03-01T06:32:12;38.88;;;15.85;;
75894;SDS011;64573;50.328;15.014;2023-03-01T06:34:37;39.13;;;14.13;;
75894;SDS011;64573;50.328;15.014;2023-03-01T06:37:02;35.53;;;14.25;;
75894;SDS011;64573;50.328;15.014;2023-03-01T06:39:30;32.90;;;13.45;;
75894;SDS011;64573;50.328;15.014;2023-03-01T06:41:56;33.30;;;13.88;;
75894;SDS011;64573;50.328;15.014;2023-03-01T06:44:21;35.90;;;14.57;;
75894;SDS011;64573;50.328;15.014;2023-03-01T06:46:47;40.38;;;17.27;;
75894;SDS011;64573;50.328;15.014;2023-03-01T06:49:12;42.55;;;17.65;;
75894;SDS011;64573;50.328;15.014;2023-03-01T06:51:38;43.17;;;20.60;;
75894;SDS011;64573;50.328;15.014;2023-03-01T06:54:04;49.08;;;20.95;;
75894;SDS011;64573;50.328;15.014;2023-03-01T06:56:30;51.13;;;23.27;;
75894;SDS011;64573;50.328;15.014;2023-03-01T06:58:56;50.58;;;22.33;;
75894;SDS011;64573;50.328;15.014;2023-03-01T07:01:21;51.15;;;19.75;;
75894;SDS011;64573;50.328;15.014;2023-03-01T07:03:46;40.38;;;17.75;;
75894;SDS011;64573;50.328;15.014;2023-03-01T07:06:12;45.63;;;19.00;;
75894;SDS011;64573;50.328;15.014;2023-03-01T07:08:37;37.13;;;16.50;;
75894;SDS011;64573;50.328;15.014;2023-03-01T07:11:02;43.20;;;16.70;;
75894;SDS011;64573;50.328;15.014;2023-03-01T07:13:28;36.78;;;17.35;;
75894;SDS011;64573;50.328;15.014;2023-03-01T07:15:54;43.97;;;17.67;;
75894;SDS011;64573;50.328;15.014;2023-03-01T07:18:19;38.15;;;16.80;;
75894;SDS011;64573;50.328;15.014;2023-03-01T07:20:45;41.17;;;16.83;;
75894;SDS011;64573;50.328;15.014;2023-03-01T07:23:10;39.63;;;17.58;;
75894;SDS011;64573;50.328;15.014;2023-03-01T07:25:35;40.33;;;16.83;;
75894;SDS011;64573;50.328;15.014;2023-03-01T07:28:01;37.22;;;16.90;;
75894;SDS011;64573;50.328;15.014;2023-03-01T07:30:26;34.58;;;16.98;;
75894;SDS011;64573;50.328;15.014;2023-03-01T07:32:53;31.15;;;16.20;;
75894;SDS011;64573;50.328;15.014;2023-03-01T07:35:20;33.67;;;16.52;;
75894;SDS011;64573;50.328;15.014;2023-03-01T07:37:46;32.95;;;15.75;;
75894;SDS011;64573;50.328;15.014;2023-03-01T07:40:11;33.72;;;15.40;;
75894;SDS011;64573;50.328;15.014;2023-03-01T07:42:37;35.38;;;17.33;;
75894;SDS011;64573;50.328;15.014;2023-03-01T07:45:03;38.50;;;16.27;;
75894;SDS011;64573;50.328;15.014;2023-03-01T07:47:30;34.08;;;16.50;;
75894;SDS011;64573;50.328;15.014;2023-03-01T07:49:56;36.33;;;16.40;;
75894;SDS011;64573;50.328;15.014;2023-03-01T07:52:21;35.63;;;15.75;;
75894;SDS011;64573;50.328;15.014;2023-03-01T07:54:46;37.03;;;16.15;;
75894;SDS011;64573;50.328;15.014;2023-03-01T07:57:12;33.70;;;15.95;;
75894;SDS011;64573;50.328;15.014;2023-03-01T07:59:37;38.83;;;16.77;;
75894;SDS011;64573;50.328;15.014;2023-03-01T08:02:03;34.88;;;16.30;;
75894;SDS011;64573;50.328;15.014;2023-03-01T08:04:28;37.50;;;16.52;;
75894;SDS011;64573;50.328;15.014;2023-03-01T08:06:54;34.53;;;16.17;;
75894;SDS011;64573;50.328;15.014;2023-03-01T08:09:20;35.35;;;17.33;;
75894;SDS011;64573;50.328;15.014;2023-03-01T08:11:46;33.38;;;15.32;;
75894;SDS011;64573;50.328;15.014;2023-03-01T08:14:11;31.13;;;15.18;;
75894;SDS011;64573;50.328;15.014;2023-03-01T08:16:36;28.92;;;13.27;;
75894;SDS011;64573;50.328;15.014;2023-03-01T08:19:05;31.38;;;13.68;;
75894;SDS011;64573;50.328;15.014;2023-03-01T08:21:32;28.42;;;14.57;;
75894;SDS011;64573;50.328;15.014;2023-03-01T08:23:59;28.38;;;15.95;;
75894;SDS011;64573;50.328;15.014;2023-03-01T08:26:28;23.58;;;12.60;;
75894;SDS011;64573;50.328;15.014;2023-03-01T08:28:54;25.30;;;11.20;;
75894;SDS011;64573;50.328;15.014;2023-03-01T08:33:47;29.17;;;14.10;;
75894;SDS011;64573;50.328;15.014;2023-03-01T08:36:16;24.30;;;12.30;;
75894;SDS011;64573;50.328;15.014;2023-03-01T08:38:42;24.13;;;12.63;;
75894;SDS011;64573;50.328;15.014;2023-03-01T08:41:08;28.67;;;13.73;;
75894;SDS011;64573;50.328;15.014;2023-03-01T08:43:33;28.02;;;13.77;;
75894;SDS011;64573;50.328;15.014;2023-03-01T08:45:59;26.35;;;11.98;;
75894;SDS011;64573;50.328;15.014;2023-03-01T08:48:24;28.20;;;12.35;;
75894;SDS011;64573;50.328;15.014;2023-03-01T08:50:50;29.95;;;12.60;;
75894;SDS011;64573;50.328;15.014;2023-03-01T08:53:16;22.38;;;11.15;;
75894;SDS011;64573;50.328;15.014;2023-03-01T08:55:41;24.80;;;13.60;;
75894;SDS011;64573;50.328;15.014;2023-03-01T08:58:06;25.85;;;13.65;;
75894;SDS011;64573;50.328;15.014;2023-03-01T09:00:32;28.05;;;13.65;;
75894;SDS011;64573;50.328;15.014;2023-03-01T09:02:59;23.88;;;11.63;;
75894;SDS011;64573;50.328;15.014;2023-03-01T09:05:25;25.52;;;12.05;;
75894;SDS011;64573;50.328;15.014;2023-03-01T09:07:50;24.00;;;12.63;;
75894;SDS011;64573;50.328;15.014;2023-03-01T09:10:16;22.08;;;10.95;;
75894;SDS011;64573;50.328;15.014;2023-03-01T09:12:41;21.60;;;11.60;;
75894;SDS011;64573;50.328;15.014;2023-03-01T09:15:06;22.52;;;11.60;;
75894;SDS011;64573;50.328;15.014;2023-03-01T09:17:32;27.00;;;13.15;;
75894;SDS011;64573;50.328;15.014;2023-03-01T09:19:58;24.27;;;12.63;;
75894;SDS011;64573;50.328;15.014;2023-03-01T09:22:24;21.67;;;10.60;;
75894;SDS011;64573;50.328;15.014;2023-03-01T09:24:50;25.65;;;12.60;;
75894;SDS011;64573;50.328;15.014;2023-03-01T09:27:15;24.70;;;12.35;;
75894;SDS011;64573;50.328;15.014;2023-03-01T09:29:43;24.08;;;12.38;;
75894;SDS011;64573;50.328;15.014;2023-03-01T09:32:09;24.38;;;12.80;;
75894;SDS011;64573;50.328;15.014;2023-03-01T09:34:35;22.45;;;11.65;;
75894;SDS011;64573;50.328;15.014;2023-03-01T09:37:20;21.75;;;11.45;;
75894;SDS011;64573;50.328;15.014;2023-03-01T09:39:46;21.60;;;11.27;;
75894;SDS011;64573;50.328;15.014;2023-03-01T09:42:11;20.10;;;11.10;;
75894;SDS011;64573;50.328;15.014;2023-03-01T09:44:40;20.38;;;11.05;;
75894;SDS011;64573;50.328;15.014;2023-03-01T09:47:18;24.67;;;12.65;;
75894;SDS011;64573;50.328;15.014;2023-03-01T09:54:57;36.08;;;14.07;;
75894;SDS011;64573;50.328;15.014;2023-03-01T10:00:00;27.80;;;14.48;;
75894;SDS011;64573;50.328;15.014;2023-03-01T10:02:38;27.05;;;13.45;;
75894;SDS011;64573;50.328;15.014;2023-03-01T10:08:02;29.65;;;13.43;;
75894;SDS011;64573;50.328;15.014;2023-03-01T10:10:31;27.67;;;14.63;;
75894;SDS011;64573;50.328;15.014;2023-03-01T10:13:00;28.77;;;13.63;;
75894;SDS011;64573;50.328;15.014;2023-03-01T10:15:37;28.50;;;14.23;;
75894;SDS011;64573;50.328;15.014;2023-03-01T10:18:18;31.30;;;14.23;;
75894;SDS011;64573;50.328;15.014;2023-03-01T10:20:52;27.33;;;14.10;;
75894;SDS011;64573;50.328;15.014;2023-03-01T10:23:23;24.52;;;13.40;;
75894;SDS011;64573;50.328;15.014;2023-03-01T10:25:56;24.95;;;13.13;;
75894;SDS011;64573;50.328;15.014;2023-03-01T10:31:18;32.03;;;14.98;;
75894;SDS011;64573;50.328;15.014;2023-03-01T10:33:47;24.48;;;13.20;;
75894;SDS011;64573;50.328;15.014;2023-03-01T10:36:16;30.33;;;14.10;;
75894;SDS011;64573;50.328;15.014;2023-03-01T10:38:54;27.55;;;13.68;;
75894;SDS011;64573;50.328;15.014;2023-03-01T10:41:23;27.35;;;13.77;;
75894;SDS011;64573;50.328;15.014;2023-03-01T10:43:51;24.40;;;14.05;;
75894;SDS011;64573;50.328;15.014;2023-03-01T10:46:36;26.70;;;14.13;;
75894;SDS011;64573;50.328;15.014;2023-03-01T10:49:06;26.15;;;13.98;;
75894;SDS011;64573;50.328;15.014;2023-03-01T10:51:35;23.52;;;14.18;;
75894;SDS011;64573;50.328;15.014;2023-03-01T10:54:01;20.42;;;11.82;;
75894;SDS011;64573;50.328;15.014;2023-03-01T10:56:27;20.13;;;10.82;;
75894;SDS011;64573;50.328;15.014;2023-03-01T10:58:57;25.77;;;12.90;;
75894;SDS011;64573;50.328;15.014;2023-03-01T11:03:54;20.70;;;11.55;;
75894;SDS011;64573;50.328;15.014;2023-03-01T11:06:30;23.27;;;12.00;;
75894;SDS011;64573;50.328;15.014;2023-03-01T11:08:56;23.80;;;12.70;;
75894;SDS011;64573;50.328;15.014;2023-03-01T11:13:52;21.45;;;12.10;;
75894;SDS011;64573;50.328;15.014;2023-03-01T11:18:45;26.42;;;12.73;;
75894;SDS011;64573;50.328;15.014;2023-03-01T11:21:21;23.55;;;12.57;;
75894;SDS011;64573;50.328;15.014;2023-03-01T11:23:47;23.10;;;13.18;;
75894;SDS011;64573;50.328;15.014;2023-03-01T11:26:13;22.77;;;12.73;;
75894;SDS011;64573;50.328;15.014;2023-03-01T11:28:40;23.40;;;13.05;;
75894;SDS011;64573;50.328;15.014;2023-03-01T11:31:10;32.08;;;13.02;;
75894;SDS011;64573;50.328;15.014;2023-03-01T11:33:44;24.48;;;12.45;;
75894;SDS011;64573;50.328;15.014;2023-03-01T11:38:40;22.13;;;12.75;;
75894;SDS011;64573;50.328;15.014;2023-03-01T12:05:10;20.95;;;12.73;;
75894;SDS011;64573;50.328;15.014;2023-03-01T12:24:10;21.23;;;13.27;;
75894;SDS011;64573;50.328;15.014;2023-03-01T12:26:40;23.35;;;13.00;;
75894;SDS011;64573;50.328;15.014;2023-03-01T12:51:40;21.10;;;12.32;;
75894;SDS011;64573;50.328;15.014;2023-03-01T12:54:20;20.73;;;13.48;;
75894;SDS011;64573;50.328;15.014;2023-03-01T12:56:59;22.30;;;12.93;;
75894;SDS011;64573;50.328;15.014;2023-03-01T13:11:59;19.63;;;11.80;;
75894;SDS011;64573;50.328;15.014;2023-03-01T13:21:46;22.65;;;12.90;;
75894;SDS011;64573;50.328;15.014;2023-03-01T13:29:26;17.35;;;10.20;;
75894;SDS011;64573;50.328;15.014;2023-03-01T13:37:48;23.13;;;12.60;;
75894;SDS011;64573;50.328;15.014;2023-03-01T13:42:44;25.60;;;12.05;;
75894;SDS011;64573;50.328;15.014;2023-03-01T13:48:17;18.95;;;11.13;;
75894;SDS011;64573;50.328;15.014;2023-03-01T13:50:50;20.95;;;11.15;;
75894;SDS011;64573;50.328;15.014;2023-03-01T13:53:20;14.88;;;8.13;;
75894;SDS011;64573;50.328;15.014;2023-03-01T13:55:55;16.85;;;10.23;;
75894;SDS011;64573;50.328;15.014;2023-03-01T14:03:19;18.65;;;10.60;;
75894;SDS011;64573;50.328;15.014;2023-03-01T14:18:32;14.25;;;8.75;;
75894;SDS011;64573;50.328;15.014;2023-03-01T14:23:56;13.50;;;7.28;;
75894;SDS011;64573;50.328;15.014;2023-03-01T14:26:22;14.57;;;8.13;;
75894;SDS011;64573;50.328;15.014;2023-03-01T14:28:48;14.95;;;8.48;;
75894;SDS011;64573;50.328;15.014;2023-03-01T14:34:03;16.52;;;8.43;;
75894;SDS011;64573;50.328;15.014;2023-03-01T14:41:31;14.43;;;8.57;;
75894;SDS011;64573;50.328;15.014;2023-03-01T14:44:03;33.00;;;10.35;;
75894;SDS011;64573;50.328;15.014;2023-03-01T14:46:33;14.80;;;9.00;;
75894;SDS011;64573;50.328;15.014;2023-03-01T14:49:12;17.15;;;8.65;;
75894;SDS011;64573;50.328;15.014;2023-03-01T14:51:41;13.85;;;8.07;;
75894;SDS011;64573;50.328;15.014;2023-03-01T14:54:18;14.93;;;9.40;;
75894;SDS011;64573;50.328;15.014;2023-03-01T14:56:48;16.55;;;9.43;;
75894;SDS011;64573;50.328;15.014;2023-03-01T14:59:18;13.40;;;7.32;;
75894;SDS011;64573;50.328;15.014;2023-03-01T15:01:46;15.10;;;7.72;;
75894;SDS011;64573;50.328;15.014;2023-03-01T15:04:12;16.25;;;8.85;;
75894;SDS011;64573;50.328;15.014;2023-03-01T15:06:38;16.30;;;9.20;;
75894;SDS011;64573;50.328;15.014;2023-03-01T15:09:04;16.48;;;8.52;;
75894;SDS011;64573;50.328;15.014;2023-03-01T15:11:31;13.93;;;8.05;;
75894;SDS011;64573;50.328;15.014;2023-03-01T15:13:58;12.82;;;8.05;;
75894;SDS011;64573;50.328;15.014;2023-03-01T15:16:24;15.77;;;8.65;;
75894;SDS011;64573;50.328;15.014;2023-03-01T15:18:53;14.50;;;8.25;;
75894;SDS011;64573;50.328;15.014;2023-03-01T15:29:10;15.75;;;8.63;;
75894;SDS011;64573;50.328;15.014;2023-03-01T15:31:42;14.02;;;8.18;;
75894;SDS011;64573;50.328;15.014;2023-03-01T15:41:46;17.02;;;10.00;;
75894;SDS011;64573;50.328;15.014;2023-03-01T15:44:26;16.48;;;9.48;;
75894;SDS011;64573;50.328;15.014;2023-03-01T15:46:56;16.17;;;9.63;;
75894;SDS011;64573;50.328;15.014;2023-03-01T15:52:04;17.85;;;9.60;;
75894;SDS011;64573;50.328;15.014;2023-03-01T15:54:38;16.67;;;9.55;;
75894;SDS011;64573;50.328;15.014;2023-03-01T15:59:40;16.92;;;9.68;;
75894;SDS011;64573;50.328;15.014;2023-03-01T16:02:09;17.35;;;9.43;;
75894;SDS011;64573;50.328;15.014;2023-03-01T16:04:37;15.80;;;9.50;;
75894;SDS011;64573;50.328;15.014;2023-03-01T16:07:03;17.58;;;9.07;;
75894;SDS011;64573;50.328;15.014;2023-03-01T16:09:28;14.63;;;9.18;;
75894;SDS011;64573;50.328;15.014;2023-03-01T16:11:53;16.35;;;9.57;;
75894;SDS011;64573;50.328;15.014;2023-03-01T16:14:19;15.18;;;8.63;;
75894;SDS011;64573;50.328;15.014;2023-03-01T16:16:45;16.30;;;8.45;;
75894;SDS011;64573;50.328;15.014;2023-03-01T16:19:13;17.05;;;9.30;;
75894;SDS011;64573;50.328;15.014;2023-03-01T16:26:49;27.55;;;14.27;;
75894;SDS011;64573;50.328;15.014;2023-03-01T16:36:59;44.33;;;20.70;;
75894;SDS011;64573;50.328;15.014;2023-03-01T16:41:59;13.93;;;7.20;;
75894;SDS011;64573;50.328;15.014;2023-03-01T16:44:26;15.48;;;7.22;;
75894;SDS011;64573;50.328;15.014;2023-03-01T16:46:51;19.83;;;8.35;;
75894;SDS011;64573;50.328;15.014;2023-03-01T16:49:16;13.05;;;7.05;;
75894;SDS011;64573;50.328;15.014;2023-03-01T16:51:42;15.65;;;7.10;;
75894;SDS011;64573;50.328;15.014;2023-03-01T16:54:07;15.85;;;7.40;;
75894;SDS011;64573;50.328;15.014;2023-03-01T16:56:34;14.52;;;7.22;;
75894;SDS011;64573;50.328;15.014;2023-03-01T16:59:02;13.30;;;6.53;;
75894;SDS011;64573;50.328;15.014;2023-03-01T17:01:27;15.73;;;7.40;;
75894;SDS011;64573;50.328;15.014;2023-03-01T17:04:02;13.73;;;6.95;;
75894;SDS011;64573;50.328;15.014;2023-03-01T17:09:03;15.65;;;7.25;;
75894;SDS011;64573;50.328;15.014;2023-03-01T17:11:29;21.20;;;9.27;;
75894;SDS011;64573;50.328;15.014;2023-03-01T17:21:40;19.58;;;8.88;;
75894;SDS011;64573;50.328;15.014;2023-03-01T17:24:06;24.90;;;10.10;;
75894;SDS011;64573;50.328;15.014;2023-03-01T17:29:06;24.75;;;9.95;;
75894;SDS011;64573;50.328;15.014;2023-03-01T17:36:39;23.77;;;11.40;;
75894;SDS011;64573;50.328;15.014;2023-03-01T17:39:10;36.63;;;14.30;;
75894;SDS011;64573;50.328;15.014;2023-03-01T17:41:36;29.83;;;11.98;;
75894;SDS011;64573;50.328;15.014;2023-03-01T17:49:09;54.80;;;22.75;;
75894;SDS011;64573;50.328;15.014;2023-03-01T17:51:34;42.22;;;19.20;;
75894;SDS011;64573;50.328;15.014;2023-03-01T17:56:30;27.50;;;13.02;;